Flight Track Log - Related Links

Times and Time Zones

All times are in EDT time to prevent confusion due to time zone crossing. See the NKS142 flight status page for this flight to view local times or setup timezone preferences in your user account.

Time Position Orientation Groundspeed Altitude Reporting Facility
EDT Latitude Longitude Course Direction KTS MPH feet Rate Location/Type
Wed 08:53:34 PM 18.6890 -69.8460 309° West 339 390 10,500  Level FlightAware ADS-B
Wed 08:54:10 PM 18.7240 -69.8890 311° West 327 376 12,600 2,194 Climbing FlightAware ADS-B
Wed 08:55:07 PM 18.7850 -69.9460 319° Northwest 339 390 13,900 2,878 Climbing FlightAware ADS-B
Wed 08:55:48 PM 18.8430 -69.9820 330° Northwest 333 383 17,300 2,217 Climbing FlightAware ADS-B
Wed 08:56:39 PM 18.9000 -70.0190 328° Northwest 333 383 17,300  Level FlightAware ADS-B
Wed 08:57:16 PM 18.9410 -70.0470 327° Northwest 333 383 17,300  Level FlightAware ADS-B
Wed 08:57:53 PM 18.9820 -70.0740 328° Northwest 333 383 17,300  Level FlightAware ADS-B
Wed 08:58:41 PM 19.0350 -70.1090 328° Northwest 333 383 17,300  Level FlightAware ADS-B
Wed 08:59:27 PM 19.0860 -70.1430 328° Northwest 333 383 17,300 1,558 Level FlightAware ADS-B
Wed 09:02:00 PM 19.2507 -70.3592 309° West  Level Estimated
Wed 09:03:00 PM 19.3152 -70.4441 309° West  Level Estimated
Wed 09:04:00 PM 19.3797 -70.5290 309° West  Level Estimated
Wed 09:05:00 PM 19.4442 -70.6140 309° West  Level Estimated
Wed 09:06:00 PM 19.5086 -70.6991 309° West  Level Estimated
Wed 09:07:00 PM 19.5729 -70.7843 309° West  Level Estimated
Wed 09:08:00 PM 19.6373 -70.8695 309° West  Level Estimated
Wed 09:09:00 PM 19.7015 -70.9548 309° West  Level Estimated
Wed 09:10:00 PM 19.7658 -71.0402 309° West  Level Estimated
Wed 09:10:41 PM 19.9681 -71.3997 309° West 468 539 36,000  Level Miami Center
Wed 09:11:00 PM 19.8300 -71.1256 309° West  Level Estimated
Wed 09:11:41 PM 20.0447 -71.5028 308° West 454 522 36,000  Level Miami Center
Wed 09:12:00 PM 19.8941 -71.2111 309° West  Level Estimated
Wed 09:12:41 PM 20.1208 -71.6014 309° West 444 511 36,000  Level Miami Center
Wed 09:13:00 PM 19.9583 -71.2967 309° West  Level Estimated
Wed 09:13:41 PM 20.1933 -71.7067 306° West 444 511 36,000  Level Miami Center
Wed 09:14:00 PM 20.0223 -71.3823 309° West  Level Estimated
Wed 09:14:41 PM 20.2492 -71.8194 298° West 438 504 36,000  Level Miami Center
Wed 09:15:41 PM 20.3272 -71.9206 309° West 438 504 36,000 -6,000 Level Miami Center
Wed 09:20:21 PM 26.0910 -80.1030 309° West 164 189 2,000 -6,345 Descending FlightAware ADS-B
Wed 09:20:54 PM 26.1210 -80.1050 357° North 248 285 2,900 915 Climbing FlightAware ADS-B
Wed 09:21:20 PM 26.1460 -80.1100 350° North 248 285 2,900 3,060 Level FlightAware ADS-B
Wed 09:31:41 PM 21.5447 -73.5181 350° North 438 504 35,900 2,907 Climbing Miami Center
Wed 09:32:41 PM 21.6200 -73.6189 309° West 438 504 35,900  Level Miami Center
Wed 09:33:41 PM 21.6994 -73.7219 310° West 444 511 35,900 50 Level Miami Center
Wed 09:34:41 PM 21.7725 -73.8231 308° West 438 504 36,000 50 Climbing Miami Center
Wed 09:35:41 PM 21.8497 -73.9286 308° West 443 510 36,000  Level Miami Center
Wed 09:36:41 PM 21.9292 -74.0431 307° West 427 491 36,000  Level Miami Center
Wed 09:37:41 PM 22.0042 -74.1467 308° West 433 498 36,000  Level Miami Center
Wed 09:38:41 PM 22.0831 -74.2506 309° West 439 505 36,000  Level Miami Center
Wed 09:39:41 PM 22.1581 -74.3544 308° West 439 505 36,000  Level Miami Center
Wed 09:40:41 PM 22.2242 -74.4450 308° West 439 505 36,000  Level Miami Center
Wed 09:41:41 PM 22.3011 -74.5492 309° West 434 499 36,000  Level Miami Center
Wed 09:42:41 PM 22.3778 -74.6511 309° West 434 499 36,000  Level Miami Center
Wed 09:43:41 PM 22.4522 -74.7578 307° West 439 505 36,000  Level Miami Center
Wed 09:44:41 PM 22.5311 -74.8597 310° West 439 505 36,000  Level Miami Center
Wed 09:45:41 PM 22.6075 -74.9644 308° West 445 512 36,000  Level Miami Center
Wed 09:46:41 PM 22.6842 -75.0714 308° West 450 518 36,000  Level Miami Center
Wed 09:47:41 PM 22.7583 -75.1739 308° West 445 512 36,000  Level Miami Center
Wed 09:48:41 PM 22.8347 -75.2789 308° West 445 512 36,000  Level Miami Center
Wed 09:49:41 PM 22.9111 -75.3839 308° West 445 512 36,000  Level Miami Center
Wed 09:50:41 PM 22.9853 -75.4892 307° West 445 512 36,000 -5,847 Level Miami Center
Wed 09:55:34 PM 26.0800 -80.1130 307° West 116 133 1,600 -6,435 Descending FlightAware ADS-B
Wed 09:55:58 PM 26.0820 -80.0980 82° East 160 184 2,000 554 Climbing FlightAware ADS-B
Wed 09:56:39 PM 26.0850 -80.0680 84° East 160 184 2,200 1,547 Climbing FlightAware ADS-B
Wed 10:17:41 PM 24.8439 -78.3519 84° East 447 514 35,600 1,448 Climbing Miami Center
Wed 10:18:41 PM 24.9286 -78.4561 312° West 447 514 34,100 -1,933 Descending Miami Center
Wed 10:24:40 PM 25.4470 -79.1120 312° West 458 527 22,100 -1,859 Descending FlightAware ADS-B
Wed 10:25:47 PM 25.5310 -79.2190 311° West 384 442 20,900 -956 Descending FlightAware ADS-B
Wed 10:26:33 PM 25.5800 -79.2830 310° West 351 404 20,300 -1,108 Descending FlightAware ADS-B
Wed 10:26:52 PM 25.6070 -79.3040 325° Northwest 343 395 19,700 -1,655 Descending FlightAware ADS-B
Wed 10:27:02 PM 25.6230 -79.3090 344° North 346 398 19,500 -1,294 Descending FlightAware ADS-B
Wed 10:27:43 PM 25.6830 -79.3160 354° North 326 375 18,600 -1,520 Descending FlightAware ADS-B
Wed 10:28:17 PM 25.7320 -79.3290 347° North 330 380 17,600 -1,900 Descending FlightAware ADS-B
Wed 10:28:43 PM 25.7570 -79.3680 305° West 331 381 16,700 -1,754 Descending FlightAware ADS-B
Wed 10:29:22 PM 25.7780 -79.4290 291° West 323 372 15,700 -1,596 Descending FlightAware ADS-B
Wed 10:30:32 PM 25.8160 -79.5340 292° West 315 362 13,800 -1,779 Descending FlightAware ADS-B
Wed 10:31:47 PM 25.8570 -79.6470 292° West 306 352 11,400 -1,855 Descending FlightAware ADS-B
Wed 10:32:22 PM 25.8780 -79.6960 295° West 301 346 10,400 -1,662 Descending FlightAware ADS-B
Wed 10:32:52 PM 25.8960 -79.7380 295° West 295 339 9,600 -1,733 Descending FlightAware ADS-B
Wed 10:33:07 PM 25.9050 -79.7580 297° West 290 334 9,100 -1,826 Descending FlightAware ADS-B
Wed 10:33:38 PM 25.9220 -79.7990 295° West 287 330 8,200 -1,800 Descending FlightAware ADS-B
Wed 10:34:07 PM 25.9390 -79.8380 296° West 288 331 7,300 -1,556 Descending FlightAware ADS-B
Wed 10:34:32 PM 25.9540 -79.8730 295° West 277 319 6,800 -941 Descending FlightAware ADS-B
Wed 10:34:58 PM 25.9670 -79.9050 294° West 263 303 6,500 -750 Descending FlightAware ADS-B
Wed 10:35:28 PM 25.9820 -79.9390 296° West 242 278 6,100 -900 Descending FlightAware ADS-B
Wed 10:35:38 PM 25.9870 -79.9520 293° West 242 278 5,900 -1,171 Descending FlightAware ADS-B
Wed 10:36:09 PM 25.9890 -79.9900 273° West 241 277 5,300 -1,200 Descending FlightAware ADS-B
Wed 10:36:38 PM 25.9890 -80.0260 270° West 241 277 4,700 -958 Descending FlightAware ADS-B
Wed 10:38:08 PM 25.9920 -80.1350 272° West 235 270 3,400 -831 Descending FlightAware ADS-B
Wed 10:38:48 PM 25.9930 -80.1820 271° West 231 266 2,900 -400 Descending FlightAware ADS-B
Wed 10:39:23 PM 25.9940 -80.2250 271° West 233 268 2,900 -235 Level FlightAware ADS-B
Wed 10:39:39 PM 25.9940 -80.2440 270° West 226 260 2,700 -686 Descending FlightAware ADS-B
Wed 10:39:58 PM 26.0020 -80.2630 295° West 225 259 2,500 -621 Descending FlightAware ADS-B
Wed 10:40:08 PM 26.0100 -80.2700 322° Northwest 218 251 2,400 -720 Descending FlightAware ADS-B
Wed 10:40:23 PM 26.0250 -80.2740 347° North 208 239 2,200 -652 Descending FlightAware ADS-B
Wed 10:40:54 PM 26.0510 -80.2700 North 183 211 1,900 -500 Descending FlightAware ADS-B
Wed 10:41:23 PM 26.0730 -80.2610 20° North 186 214 1,700 -702 Descending FlightAware ADS-B
Wed 10:42:28 PM 26.0770 -80.2160 84° East 125 144 800 -800 Descending FlightAware ADS-B
Wed 10:42:53 PM 26.0770 -80.1980 90° East 125 144 500 -435 Descending FlightAware ADS-B
Wed 10:43:37 PM 26.0770 -80.1720 90° East 126 145 300 -273 Descending FlightAware ADS-B
Wed 10:45:27 PM 26.0770 -80.1550 90° East 120 138 -164 Descending FlightAware ADS-B
Wed 10:45:39 PM 26.0770 -80.1490 90° East 12 14  Level FlightAware ADS-B
Wed 10:46:09 PM 26.0780 -80.1220 88° East 144 166  Level FlightAware ADS-B
Wed 10:46:34 PM 26.0800 -80.1060 82° East 144 166  Level FlightAware ADS-B
Wed 10:50:00 PM 26.0726 -80.1527 90° East  Level Estimated
Wed 10:51:00 PM 26.0726 -80.1527 77° East  Level Estimated

Login

Don't have an account? Register now (free) for customized features, flight alerts, and more!